sensor_id;sensor_type;location;lat;lon;timestamp;P1;durP1;ratioP1;P2;durP2;ratioP2
77495;SDS011;66600;48.378;9.948;2024-01-11T00:00:21;90.22;;;39.17;;
77495;SDS011;66600;48.378;9.948;2024-01-11T00:00:52;89.88;;;39.88;;
77495;SDS011;66600;48.378;9.948;2024-01-11T00:01:22;92.30;;;39.17;;
77495;SDS011;66600;48.378;9.948;2024-01-11T00:01:53;86.40;;;39.22;;
77495;SDS011;66600;48.378;9.948;2024-01-11T00:02:23;92.13;;;39.10;;
77495;SDS011;66600;48.378;9.948;2024-01-11T00:02:53;86.78;;;39.72;;
77495;SDS011;66600;48.378;9.948;2024-01-11T00:03:24;91.00;;;39.78;;
77495;SDS011;66600;48.378;9.948;2024-01-11T00:03:54;88.18;;;38.40;;
77495;SDS011;66600;48.378;9.948;2024-01-11T00:04:24;85.80;;;39.40;;
77495;SDS011;66600;48.378;9.948;2024-01-11T00:04:56;93.65;;;40.60;;
77495;SDS011;66600;48.378;9.948;2024-01-11T00:05:26;84.95;;;38.35;;
77495;SDS011;66600;48.378;9.948;2024-01-11T00:05:56;82.68;;;37.72;;
77495;SDS011;66600;48.378;9.948;2024-01-11T00:06:27;84.85;;;37.90;;
77495;SDS011;66600;48.378;9.948;2024-01-11T00:06:57;84.50;;;39.03;;
77495;SDS011;66600;48.378;9.948;2024-01-11T00:07:27;86.82;;;38.10;;
77495;SDS011;66600;48.378;9.948;2024-01-11T00:07:58;82.15;;;39.08;;
77495;SDS011;66600;48.378;9.948;2024-01-11T00:08:28;87.25;;;39.08;;
77495;SDS011;66600;48.378;9.948;2024-01-11T00:08:58;95.35;;;40.70;;
77495;SDS011;66600;48.378;9.948;2024-01-11T00:09:29;89.35;;;39.17;;
77495;SDS011;66600;48.378;9.948;2024-01-11T00:10:00;81.97;;;37.20;;
77495;SDS011;66600;48.378;9.948;2024-01-11T00:10:31;87.28;;;37.50;;
77495;SDS011;66600;48.378;9.948;2024-01-11T00:11:01;85.82;;;36.63;;
77495;SDS011;66600;48.378;9.948;2024-01-11T00:11:31;88.53;;;38.85;;
77495;SDS011;66600;48.378;9.948;2024-01-11T00:12:02;84.45;;;36.80;;
77495;SDS011;66600;48.378;9.948;2024-01-11T00:12:32;88.05;;;38.80;;
77495;SDS011;66600;48.378;9.948;2024-01-11T00:13:03;87.68;;;37.58;;
77495;SDS011;66600;48.378;9.948;2024-01-11T00:13:34;85.35;;;39.00;;
77495;SDS011;66600;48.378;9.948;2024-01-11T00:14:04;92.22;;;38.03;;
77495;SDS011;66600;48.378;9.948;2024-01-11T00:14:35;81.50;;;38.67;;
77495;SDS011;66600;48.378;9.948;2024-01-11T00:15:05;85.80;;;37.78;;
77495;SDS011;66600;48.378;9.948;2024-01-11T00:15:36;90.43;;;38.78;;
77495;SDS011;66600;48.378;9.948;2024-01-11T00:16:06;86.78;;;39.08;;
77495;SDS011;66600;48.378;9.948;2024-01-11T00:16:37;85.40;;;38.60;;
77495;SDS011;66600;48.378;9.948;2024-01-11T00:17:07;89.85;;;38.55;;
77495;SDS011;66600;48.378;9.948;2024-01-11T00:17:38;84.00;;;38.88;;
77495;SDS011;66600;48.378;9.948;2024-01-11T00:18:08;85.47;;;38.65;;
77495;SDS011;66600;48.378;9.948;2024-01-11T00:18:38;89.22;;;38.40;;
77495;SDS011;66600;48.378;9.948;2024-01-11T00:19:09;87.45;;;36.58;;
77495;SDS011;66600;48.378;9.948;2024-01-11T00:19:39;83.53;;;38.60;;
77495;SDS011;66600;48.378;9.948;2024-01-11T00:20:10;85.60;;;39.15;;
77495;SDS011;66600;48.378;9.948;2024-01-11T00:20:40;83.63;;;37.70;;
77495;SDS011;66600;48.378;9.948;2024-01-11T00:21:11;86.30;;;36.88;;
77495;SDS011;66600;48.378;9.948;2024-01-11T00:21:41;83.45;;;37.05;;
77495;SDS011;66600;48.378;9.948;2024-01-11T00:22:12;79.82;;;36.75;;
77495;SDS011;66600;48.378;9.948;2024-01-11T00:22:42;79.35;;;37.03;;
77495;SDS011;66600;48.378;9.948;2024-01-11T00:23:12;85.72;;;37.75;;
77495;SDS011;66600;48.378;9.948;2024-01-11T00:23:43;86.00;;;37.05;;
77495;SDS011;66600;48.378;9.948;2024-01-11T00:24:13;87.85;;;38.22;;
77495;SDS011;66600;48.378;9.948;2024-01-11T00:24:43;84.28;;;37.35;;
77495;SDS011;66600;48.378;9.948;2024-01-11T00:25:14;86.30;;;39.08;;
77495;SDS011;66600;48.378;9.948;2024-01-11T00:25:44;93.75;;;40.10;;
77495;SDS011;66600;48.378;9.948;2024-01-11T00:26:14;86.70;;;38.50;;
77495;SDS011;66600;48.378;9.948;2024-01-11T00:26:45;88.18;;;38.63;;
77495;SDS011;66600;48.378;9.948;2024-01-11T00:27:15;85.57;;;38.15;;
77495;SDS011;66600;48.378;9.948;2024-01-11T00:27:46;87.55;;;39.22;;
77495;SDS011;66600;48.378;9.948;2024-01-11T00:28:16;86.78;;;37.60;;
77495;SDS011;66600;48.378;9.948;2024-01-11T00:28:46;85.40;;;38.20;;
77495;SDS011;66600;48.378;9.948;2024-01-11T00:29:17;86.88;;;38.33;;
77495;SDS011;66600;48.378;9.948;2024-01-11T00:29:47;82.43;;;37.50;;
77495;SDS011;66600;48.378;9.948;2024-01-11T00:30:18;91.70;;;39.42;;
77495;SDS011;66600;48.378;9.948;2024-01-11T00:30:48;85.32;;;38.35;;
77495;SDS011;66600;48.378;9.948;2024-01-11T00:31:18;84.65;;;38.20;;
77495;SDS011;66600;48.378;9.948;2024-01-11T00:31:49;82.07;;;35.90;;
77495;SDS011;66600;48.378;9.948;2024-01-11T00:32:19;85.65;;;38.67;;
77495;SDS011;66600;48.378;9.948;2024-01-11T00:32:51;85.50;;;38.05;;
77495;SDS011;66600;48.378;9.948;2024-01-11T00:33:21;83.95;;;38.95;;
77495;SDS011;66600;48.378;9.948;2024-01-11T00:33:52;89.20;;;38.65;;
77495;SDS011;66600;48.378;9.948;2024-01-11T00:34:22;84.70;;;38.63;;
77495;SDS011;66600;48.378;9.948;2024-01-11T00:34:52;79.82;;;35.35;;
77495;SDS011;66600;48.378;9.948;2024-01-11T00:35:23;83.70;;;37.70;;
77495;SDS011;66600;48.378;9.948;2024-01-11T00:35:54;87.03;;;39.33;;
77495;SDS011;66600;48.378;9.948;2024-01-11T00:36:24;82.25;;;37.42;;
77495;SDS011;66600;48.378;9.948;2024-01-11T00:36:54;82.93;;;37.13;;
77495;SDS011;66600;48.378;9.948;2024-01-11T00:37:25;83.53;;;37.13;;
77495;SDS011;66600;48.378;9.948;2024-01-11T00:37:55;79.18;;;35.63;;
77495;SDS011;66600;48.378;9.948;2024-01-11T00:38:25;83.40;;;37.55;;
77495;SDS011;66600;48.378;9.948;2024-01-11T00:38:56;79.82;;;36.22;;
77495;SDS011;66600;48.378;9.948;2024-01-11T00:39:26;83.90;;;37.60;;
77495;SDS011;66600;48.378;9.948;2024-01-11T00:39:57;86.82;;;37.88;;
77495;SDS011;66600;48.378;9.948;2024-01-11T00:40:27;88.80;;;38.63;;
77495;SDS011;66600;48.378;9.948;2024-01-11T00:40:57;87.63;;;38.40;;
77495;SDS011;66600;48.378;9.948;2024-01-11T00:41:28;86.75;;;38.30;;
77495;SDS011;66600;48.378;9.948;2024-01-11T00:41:58;84.90;;;38.78;;
77495;SDS011;66600;48.378;9.948;2024-01-11T00:42:28;84.35;;;38.83;;
77495;SDS011;66600;48.378;9.948;2024-01-11T00:42:59;90.63;;;39.13;;
77495;SDS011;66600;48.378;9.948;2024-01-11T00:43:29;88.28;;;38.88;;
77495;SDS011;66600;48.378;9.948;2024-01-11T00:43:59;84.35;;;37.92;;
77495;SDS011;66600;48.378;9.948;2024-01-11T00:44:30;87.68;;;40.03;;
77495;SDS011;66600;48.378;9.948;2024-01-11T00:45:00;91.10;;;40.60;;
77495;SDS011;66600;48.378;9.948;2024-01-11T00:45:31;86.55;;;39.80;;
77495;SDS011;66600;48.378;9.948;2024-01-11T00:46:01;92.78;;;39.35;;
77495;SDS011;66600;48.378;9.948;2024-01-11T00:46:31;88.82;;;39.80;;
77495;SDS011;66600;48.378;9.948;2024-01-11T00:47:02;94.32;;;39.20;;
77495;SDS011;66600;48.378;9.948;2024-01-11T00:47:32;89.57;;;39.90;;
77495;SDS011;66600;48.378;9.948;2024-01-11T00:48:03;89.50;;;38.47;;
77495;SDS011;66600;48.378;9.948;2024-01-11T00:48:34;91.43;;;41.08;;
77495;SDS011;66600;48.378;9.948;2024-01-11T00:49:04;93.68;;;41.50;;
77495;SDS011;66600;48.378;9.948;2024-01-11T00:49:34;88.97;;;38.92;;
77495;SDS011;66600;48.378;9.948;2024-01-11T00:50:05;88.28;;;39.63;;
77495;SDS011;66600;48.378;9.948;2024-01-11T00:50:35;84.80;;;38.65;;
77495;SDS011;66600;48.378;9.948;2024-01-11T00:51:06;90.50;;;38.42;;
77495;SDS011;66600;48.378;9.948;2024-01-11T00:51:37;88.15;;;39.80;;
77495;SDS011;66600;48.378;9.948;2024-01-11T00:52:07;89.28;;;41.35;;
77495;SDS011;66600;48.378;9.948;2024-01-11T00:52:37;85.18;;;38.25;;
77495;SDS011;66600;48.378;9.948;2024-01-11T00:53:08;83.15;;;39.28;;
77495;SDS011;66600;48.378;9.948;2024-01-11T00:53:39;93.63;;;41.45;;
77495;SDS011;66600;48.378;9.948;2024-01-11T00:54:09;86.22;;;39.92;;
77495;SDS011;66600;48.378;9.948;2024-01-11T00:54:40;88.60;;;38.67;;
77495;SDS011;66600;48.378;9.948;2024-01-11T00:55:10;88.28;;;38.03;;
77495;SDS011;66600;48.378;9.948;2024-01-11T00:55:41;85.20;;;37.88;;
77495;SDS011;66600;48.378;9.948;2024-01-11T00:56:17;90.43;;;39.67;;
77495;SDS011;66600;48.378;9.948;2024-01-11T00:56:48;83.35;;;36.80;;
77495;SDS011;66600;48.378;9.948;2024-01-11T00:57:19;85.38;;;36.03;;
77495;SDS011;66600;48.378;9.948;2024-01-11T00:57:49;93.35;;;39.33;;
77495;SDS011;66600;48.378;9.948;2024-01-11T00:58:19;88.20;;;38.08;;
77495;SDS011;66600;48.378;9.948;2024-01-11T00:58:50;86.10;;;37.20;;
77495;SDS011;66600;48.378;9.948;2024-01-11T00:59:20;88.72;;;37.05;;
77495;SDS011;66600;48.378;9.948;2024-01-11T00:59:50;84.32;;;37.33;;
77495;SDS011;66600;48.378;9.948;2024-01-11T01:00:21;87.95;;;38.10;;
77495;SDS011;66600;48.378;9.948;2024-01-11T01:00:51;82.40;;;37.90;;
77495;SDS011;66600;48.378;9.948;2024-01-11T01:01:23;84.05;;;37.28;;
77495;SDS011;66600;48.378;9.948;2024-01-11T01:01:53;82.45;;;35.55;;
77495;SDS011;66600;48.378;9.948;2024-01-11T01:02:23;81.93;;;38.05;;
77495;SDS011;66600;48.378;9.948;2024-01-11T01:02:54;79.32;;;35.75;;
77495;SDS011;66600;48.378;9.948;2024-01-11T01:03:24;82.15;;;36.97;;
77495;SDS011;66600;48.378;9.948;2024-01-11T01:03:54;88.45;;;39.05;;
77495;SDS011;66600;48.378;9.948;2024-01-11T01:04:25;81.47;;;36.92;;
77495;SDS011;66600;48.378;9.948;2024-01-11T01:04:55;79.28;;;36.40;;
77495;SDS011;66600;48.378;9.948;2024-01-11T01:05:25;84.78;;;37.22;;
77495;SDS011;66600;48.378;9.948;2024-01-11T01:05:56;83.80;;;37.90;;
77495;SDS011;66600;48.378;9.948;2024-01-11T01:06:26;84.03;;;38.22;;
77495;SDS011;66600;48.378;9.948;2024-01-11T01:06:57;82.63;;;38.38;;
77495;SDS011;66600;48.378;9.948;2024-01-11T01:07:27;85.65;;;39.15;;
77495;SDS011;66600;48.378;9.948;2024-01-11T01:07:57;82.60;;;37.67;;
77495;SDS011;66600;48.378;9.948;2024-01-11T01:08:28;87.20;;;38.20;;
77495;SDS011;66600;48.378;9.948;2024-01-11T01:08:59;85.57;;;39.05;;
77495;SDS011;66600;48.378;9.948;2024-01-11T01:09:29;79.28;;;36.72;;
77495;SDS011;66600;48.378;9.948;2024-01-11T01:10:00;84.30;;;37.28;;
77495;SDS011;66600;48.378;9.948;2024-01-11T01:10:31;88.55;;;38.58;;
77495;SDS011;66600;48.378;9.948;2024-01-11T01:11:02;85.82;;;38.58;;
77495;SDS011;66600;48.378;9.948;2024-01-11T01:11:32;87.05;;;37.75;;
77495;SDS011;66600;48.378;9.948;2024-01-11T01:12:03;86.82;;;37.75;;
77495;SDS011;66600;48.378;9.948;2024-01-11T01:12:33;78.60;;;35.80;;
77495;SDS011;66600;48.378;9.948;2024-01-11T01:13:04;83.07;;;36.92;;
77495;SDS011;66600;48.378;9.948;2024-01-11T01:13:34;85.05;;;37.92;;
77495;SDS011;66600;48.378;9.948;2024-01-11T01:14:05;83.28;;;37.10;;
77495;SDS011;66600;48.378;9.948;2024-01-11T01:14:35;89.05;;;37.83;;
77495;SDS011;66600;48.378;9.948;2024-01-11T01:15:06;80.38;;;37.97;;
77495;SDS011;66600;48.378;9.948;2024-01-11T01:15:36;87.35;;;38.50;;
77495;SDS011;66600;48.378;9.948;2024-01-11T01:16:07;89.65;;;39.28;;
77495;SDS011;66600;48.378;9.948;2024-01-11T01:16:37;81.22;;;38.85;;
77495;SDS011;66600;48.378;9.948;2024-01-11T01:17:07;83.00;;;37.20;;
77495;SDS011;66600;48.378;9.948;2024-01-11T01:17:38;90.78;;;39.83;;
77495;SDS011;66600;48.378;9.948;2024-01-11T01:18:08;85.05;;;36.90;;
77495;SDS011;66600;48.378;9.948;2024-01-11T01:18:38;88.00;;;39.35;;
77495;SDS011;66600;48.378;9.948;2024-01-11T01:19:09;91.85;;;40.40;;
77495;SDS011;66600;48.378;9.948;2024-01-11T01:19:39;83.18;;;38.30;;
77495;SDS011;66600;48.378;9.948;2024-01-11T01:20:09;92.00;;;39.90;;
77495;SDS011;66600;48.378;9.948;2024-01-11T01:20:41;88.47;;;39.22;;
77495;SDS011;66600;48.378;9.948;2024-01-11T01:21:11;88.85;;;41.45;;
77495;SDS011;66600;48.378;9.948;2024-01-11T01:21:41;87.35;;;38.25;;
77495;SDS011;66600;48.378;9.948;2024-01-11T01:22:12;92.45;;;42.38;;
77495;SDS011;66600;48.378;9.948;2024-01-11T01:22:42;88.78;;;40.97;;
77495;SDS011;66600;48.378;9.948;2024-01-11T01:23:12;87.82;;;38.83;;
77495;SDS011;66600;48.378;9.948;2024-01-11T01:23:43;85.72;;;38.90;;
77495;SDS011;66600;48.378;9.948;2024-01-11T01:24:13;90.90;;;38.65;;
77495;SDS011;66600;48.378;9.948;2024-01-11T01:24:44;86.57;;;37.20;;
77495;SDS011;66600;48.378;9.948;2024-01-11T01:25:14;82.85;;;38.25;;
77495;SDS011;66600;48.378;9.948;2024-01-11T01:25:44;91.90;;;38.78;;
77495;SDS011;66600;48.378;9.948;2024-01-11T01:26:15;89.55;;;40.08;;
77495;SDS011;66600;48.378;9.948;2024-01-11T01:26:45;81.90;;;37.88;;
77495;SDS011;66600;48.378;9.948;2024-01-11T01:27:16;93.05;;;38.45;;
77495;SDS011;66600;48.378;9.948;2024-01-11T01:27:46;86.25;;;37.80;;
77495;SDS011;66600;48.378;9.948;2024-01-11T01:28:18;93.10;;;39.70;;
77495;SDS011;66600;48.378;9.948;2024-01-11T01:28:48;84.07;;;37.90;;
77495;SDS011;66600;48.378;9.948;2024-01-11T01:29:18;99.47;;;41.72;;
77495;SDS011;66600;48.378;9.948;2024-01-11T01:29:49;95.88;;;43.20;;
77495;SDS011;66600;48.378;9.948;2024-01-11T01:30:19;86.05;;;38.20;;
77495;SDS011;66600;48.378;9.948;2024-01-11T01:30:50;93.50;;;39.78;;
77495;SDS011;66600;48.378;9.948;2024-01-11T01:31:21;90.30;;;40.42;;
77495;SDS011;66600;48.378;9.948;2024-01-11T01:31:51;91.60;;;39.85;;
77495;SDS011;66600;48.378;9.948;2024-01-11T01:32:22;86.43;;;36.88;;
77495;SDS011;66600;48.378;9.948;2024-01-11T01:32:52;89.63;;;38.85;;
77495;SDS011;66600;48.378;9.948;2024-01-11T01:33:23;96.07;;;40.83;;
77495;SDS011;66600;48.378;9.948;2024-01-11T01:33:54;97.97;;;40.90;;
77495;SDS011;66600;48.378;9.948;2024-01-11T01:34:24;92.00;;;40.45;;
77495;SDS011;66600;48.378;9.948;2024-01-11T01:34:54;90.43;;;39.55;;
77495;SDS011;66600;48.378;9.948;2024-01-11T01:35:25;93.53;;;41.92;;
77495;SDS011;66600;48.378;9.948;2024-01-11T01:35:55;95.10;;;42.47;;
77495;SDS011;66600;48.378;9.948;2024-01-11T01:36:25;100.07;;;45.78;;
77495;SDS011;66600;48.378;9.948;2024-01-11T01:36:55;94.10;;;45.42;;
77495;SDS011;66600;48.378;9.948;2024-01-11T01:37:26;95.47;;;44.08;;
77495;SDS011;66600;48.378;9.948;2024-01-11T01:37:56;96.93;;;42.90;;
77495;SDS011;66600;48.378;9.948;2024-01-11T01:38:26;97.55;;;40.70;;
77495;SDS011;66600;48.378;9.948;2024-01-11T01:38:57;95.47;;;41.60;;
77495;SDS011;66600;48.378;9.948;2024-01-11T01:39:27;93.95;;;39.60;;
77495;SDS011;66600;48.378;9.948;2024-01-11T01:39:57;85.03;;;38.35;;
77495;SDS011;66600;48.378;9.948;2024-01-11T01:40:29;90.13;;;38.97;;
77495;SDS011;66600;48.378;9.948;2024-01-11T01:41:00;87.25;;;38.85;;
77495;SDS011;66600;48.378;9.948;2024-01-11T01:41:31;88.32;;;37.55;;
77495;SDS011;66600;48.378;9.948;2024-01-11T01:42:01;99.38;;;42.08;;
77495;SDS011;66600;48.378;9.948;2024-01-11T01:42:31;94.60;;;39.78;;
77495;SDS011;66600;48.378;9.948;2024-01-11T01:43:06;96.82;;;42.38;;
77495;SDS011;66600;48.378;9.948;2024-01-11T01:43:37;99.32;;;43.53;;
77495;SDS011;66600;48.378;9.948;2024-01-11T01:44:07;91.15;;;40.70;;
77495;SDS011;66600;48.378;9.948;2024-01-11T01:44:38;98.15;;;41.15;;
77495;SDS011;66600;48.378;9.948;2024-01-11T01:45:11;100.45;;;41.65;;
77495;SDS011;66600;48.378;9.948;2024-01-11T01:45:41;101.13;;;41.05;;
77495;SDS011;66600;48.378;9.948;2024-01-11T01:46:11;100.88;;;41.97;;
77495;SDS011;66600;48.378;9.948;2024-01-11T01:46:49;98.38;;;41.13;;
77495;SDS011;66600;48.378;9.948;2024-01-11T01:47:19;105.55;;;43.90;;
77495;SDS011;66600;48.378;9.948;2024-01-11T01:47:50;100.75;;;43.10;;
77495;SDS011;66600;48.378;9.948;2024-01-11T01:48:20;99.18;;;42.47;;
77495;SDS011;66600;48.378;9.948;2024-01-11T01:48:51;94.45;;;39.97;;
77495;SDS011;66600;48.378;9.948;2024-01-11T01:49:23;94.95;;;40.45;;
77495;SDS011;66600;48.378;9.948;2024-01-11T01:49:54;96.57;;;41.75;;
77495;SDS011;66600;48.378;9.948;2024-01-11T01:50:25;95.80;;;40.47;;
77495;SDS011;66600;48.378;9.948;2024-01-11T01:50:56;93.55;;;42.40;;
77495;SDS011;66600;48.378;9.948;2024-01-11T01:51:28;95.72;;;42.38;;
77495;SDS011;66600;48.378;9.948;2024-01-11T01:52:00;97.82;;;41.00;;
77495;SDS011;66600;48.378;9.948;2024-01-11T01:52:31;98.85;;;43.10;;
77495;SDS011;66600;48.378;9.948;2024-01-11T01:53:04;104.50;;;44.10;;
77495;SDS011;66600;48.378;9.948;2024-01-11T01:53:34;100.18;;;42.70;;
77495;SDS011;66600;48.378;9.948;2024-01-11T01:54:05;98.65;;;41.22;;
77495;SDS011;66600;48.378;9.948;2024-01-11T01:54:36;98.35;;;42.22;;
77495;SDS011;66600;48.378;9.948;2024-01-11T01:55:07;98.13;;;41.75;;
77495;SDS011;66600;48.378;9.948;2024-01-11T01:55:40;98.05;;;41.58;;
77495;SDS011;66600;48.378;9.948;2024-01-11T01:56:10;99.25;;;41.95;;
77495;SDS011;66600;48.378;9.948;2024-01-11T01:56:41;90.30;;;40.83;;
77495;SDS011;66600;48.378;9.948;2024-01-11T01:57:11;96.97;;;41.08;;
77495;SDS011;66600;48.378;9.948;2024-01-11T01:57:43;96.50;;;42.45;;
77495;SDS011;66600;48.378;9.948;2024-01-11T01:58:15;94.80;;;37.85;;
77495;SDS011;66600;48.378;9.948;2024-01-11T01:58:48;99.55;;;41.42;;
77495;SDS011;66600;48.378;9.948;2024-01-11T01:59:21;92.25;;;39.88;;
77495;SDS011;66600;48.378;9.948;2024-01-11T01:59:54;101.40;;;41.38;;
77495;SDS011;66600;48.378;9.948;2024-01-11T02:00:24;99.70;;;42.20;;
77495;SDS011;66600;48.378;9.948;2024-01-11T02:00:55;93.32;;;41.20;;
77495;SDS011;66600;48.378;9.948;2024-01-11T02:01:27;101.10;;;42.25;;
77495;SDS011;66600;48.378;9.948;2024-01-11T02:01:58;93.18;;;40.67;;
77495;SDS011;66600;48.378;9.948;2024-01-11T02:02:28;95.32;;;37.85;;
77495;SDS011;66600;48.378;9.948;2024-01-11T02:03:01;94.05;;;40.95;;
77495;SDS011;66600;48.378;9.948;2024-01-11T02:03:31;92.82;;;39.83;;
77495;SDS011;66600;48.378;9.948;2024-01-11T02:04:01;92.15;;;38.85;;
77495;SDS011;66600;48.378;9.948;2024-01-11T02:04:32;97.20;;;38.05;;
77495;SDS011;66600;48.378;9.948;2024-01-11T02:05:03;89.43;;;37.78;;
77495;SDS011;66600;48.378;9.948;2024-01-11T02:05:34;94.05;;;39.83;;
77495;SDS011;66600;48.378;9.948;2024-01-11T02:06:05;93.57;;;38.95;;
77495;SDS011;66600;48.378;9.948;2024-01-11T02:06:37;91.68;;;38.97;;
77495;SDS011;66600;48.378;9.948;2024-01-11T02:07:08;91.85;;;39.28;;
77495;SDS011;66600;48.378;9.948;2024-01-11T02:07:39;98.60;;;38.95;;
77495;SDS011;66600;48.378;9.948;2024-01-11T02:08:12;93.15;;;38.22;;
77495;SDS011;66600;48.378;9.948;2024-01-11T02:08:45;89.97;;;36.88;;
77495;SDS011;66600;48.378;9.948;2024-01-11T02:09:16;98.20;;;38.50;;
77495;SDS011;66600;48.378;9.948;2024-01-11T02:09:47;100.53;;;41.00;;
77495;SDS011;66600;48.378;9.948;2024-01-11T02:10:18;97.35;;;40.50;;
77495;SDS011;66600;48.378;9.948;2024-01-11T02:10:49;92.30;;;39.13;;
77495;SDS011;66600;48.378;9.948;2024-01-11T02:11:20;97.72;;;40.35;;
77495;SDS011;66600;48.378;9.948;2024-01-11T02:11:54;99.82;;;38.55;;
77495;SDS011;66600;48.378;9.948;2024-01-11T02:12:25;99.10;;;40.75;;
77495;SDS011;66600;48.378;9.948;2024-01-11T02:12:55;100.22;;;41.53;;
77495;SDS011;66600;48.378;9.948;2024-01-11T02:13:26;106.78;;;43.28;;
77495;SDS011;66600;48.378;9.948;2024-01-11T02:13:56;103.18;;;42.95;;
77495;SDS011;66600;48.378;9.948;2024-01-11T02:14:27;100.78;;;42.00;;
77495;SDS011;66600;48.378;9.948;2024-01-11T02:14:58;100.60;;;41.75;;
77495;SDS011;66600;48.378;9.948;2024-01-11T02:15:29;98.00;;;40.83;;
77495;SDS011;66600;48.378;9.948;2024-01-11T02:15:59;101.40;;;40.55;;
77495;SDS011;66600;48.378;9.948;2024-01-11T02:16:29;102.25;;;41.78;;
77495;SDS011;66600;48.378;9.948;2024-01-11T02:17:00;99.00;;;41.00;;
77495;SDS011;66600;48.378;9.948;2024-01-11T02:17:32;99.57;;;41.45;;
77495;SDS011;66600;48.378;9.948;2024-01-11T02:18:03;104.75;;;40.92;;
77495;SDS011;66600;48.378;9.948;2024-01-11T02:18:33;101.18;;;41.58;;
77495;SDS011;66600;48.378;9.948;2024-01-11T02:19:06;109.80;;;42.25;;
77495;SDS011;66600;48.378;9.948;2024-01-11T02:19:41;100.78;;;39.90;;
77495;SDS011;66600;48.378;9.948;2024-01-11T02:20:11;100.90;;;41.45;;
77495;SDS011;66600;48.378;9.948;2024-01-11T02:20:42;97.30;;;40.63;;
77495;SDS011;66600;48.378;9.948;2024-01-11T02:21:14;100.72;;;41.72;;
77495;SDS011;66600;48.378;9.948;2024-01-11T02:21:46;97.65;;;41.83;;
77495;SDS011;66600;48.378;9.948;2024-01-11T02:22:22;97.78;;;41.40;;
77495;SDS011;66600;48.378;9.948;2024-01-11T02:22:58;95.35;;;39.45;;
77495;SDS011;66600;48.378;9.948;2024-01-11T02:23:36;97.28;;;40.17;;
77495;SDS011;66600;48.378;9.948;2024-01-11T02:24:15;92.63;;;37.78;;
77495;SDS011;66600;48.378;9.948;2024-01-11T02:24:45;98.60;;;39.67;;
77495;SDS011;66600;48.378;9.948;2024-01-11T02:25:16;98.93;;;38.92;;
77495;SDS011;66600;48.378;9.948;2024-01-11T02:25:46;94.35;;;40.42;;
77495;SDS011;66600;48.378;9.948;2024-01-11T02:26:17;96.45;;;40.58;;
77495;SDS011;66600;48.378;9.948;2024-01-11T02:27:03;92.18;;;38.28;;
77495;SDS011;66600;48.378;9.948;2024-01-11T02:27:47;96.15;;;36.58;;
77495;SDS011;66600;48.378;9.948;2024-01-11T02:28:18;92.25;;;34.15;;
77495;SDS011;66600;48.378;9.948;2024-01-11T02:28:49;90.15;;;35.83;;
77495;SDS011;66600;48.378;9.948;2024-01-11T02:29:19;110.45;;;40.05;;
77495;SDS011;66600;48.378;9.948;2024-01-11T02:29:50;114.57;;;39.75;;
77495;SDS011;66600;48.378;9.948;2024-01-11T02:30:20;107.10;;;38.88;;
77495;SDS011;66600;48.378;9.948;2024-01-11T02:30:50;110.45;;;40.50;;
77495;SDS011;66600;48.378;9.948;2024-01-11T02:31:21;107.65;;;42.90;;
77495;SDS011;66600;48.378;9.948;2024-01-11T02:31:51;100.47;;;40.83;;
77495;SDS011;66600;48.378;9.948;2024-01-11T02:32:22;108.70;;;40.67;;
77495;SDS011;66600;48.378;9.948;2024-01-11T02:32:53;102.30;;;41.03;;
77495;SDS011;66600;48.378;9.948;2024-01-11T02:33:24;102.93;;;42.13;;
77495;SDS011;66600;48.378;9.948;2024-01-11T02:33:54;105.63;;;41.47;;
77495;SDS011;66600;48.378;9.948;2024-01-11T02:34:26;101.32;;;39.60;;
77495;SDS011;66600;48.378;9.948;2024-01-11T02:34:57;97.57;;;38.90;;
77495;SDS011;66600;48.378;9.948;2024-01-11T02:35:28;111.70;;;40.42;;
77495;SDS011;66600;48.378;9.948;2024-01-11T02:35:58;96.65;;;38.92;;
77495;SDS011;66600;48.378;9.948;2024-01-11T02:36:29;92.80;;;37.13;;
77495;SDS011;66600;48.378;9.948;2024-01-11T02:36:59;90.72;;;40.25;;
77495;SDS011;66600;48.378;9.948;2024-01-11T02:37:30;94.30;;;40.25;;
77495;SDS011;66600;48.378;9.948;2024-01-11T02:38:00;96.18;;;38.47;;
77495;SDS011;66600;48.378;9.948;2024-01-11T02:38:32;95.30;;;38.45;;
77495;SDS011;66600;48.378;9.948;2024-01-11T02:39:04;90.93;;;39.25;;
77495;SDS011;66600;48.378;9.948;2024-01-11T02:39:35;95.57;;;38.58;;
77495;SDS011;66600;48.378;9.948;2024-01-11T02:40:06;90.72;;;37.03;;
77495;SDS011;66600;48.378;9.948;2024-01-11T02:40:38;94.97;;;37.72;;
77495;SDS011;66600;48.378;9.948;2024-01-11T02:41:09;86.90;;;37.75;;
77495;SDS011;66600;48.378;9.948;2024-01-11T02:41:41;100.10;;;39.67;;
77495;SDS011;66600;48.378;9.948;2024-01-11T02:42:13;93.07;;;37.03;;
77495;SDS011;66600;48.378;9.948;2024-01-11T02:42:43;123.55;;;38.28;;
77495;SDS011;66600;48.378;9.948;2024-01-11T02:43:14;130.68;;;38.15;;
77495;SDS011;66600;48.378;9.948;2024-01-11T02:43:47;107.63;;;39.78;;
77495;SDS011;66600;48.378;9.948;2024-01-11T02:44:21;103.55;;;37.65;;
77495;SDS011;66600;48.378;9.948;2024-01-11T02:44:51;95.68;;;37.20;;
77495;SDS011;66600;48.378;9.948;2024-01-11T02:45:22;105.40;;;39.63;;
77495;SDS011;66600;48.378;9.948;2024-01-11T02:45:55;107.57;;;39.92;;
77495;SDS011;66600;48.378;9.948;2024-01-11T02:46:26;101.55;;;39.58;;
77495;SDS011;66600;48.378;9.948;2024-01-11T02:46:56;95.15;;;40.28;;
77495;SDS011;66600;48.378;9.948;2024-01-11T02:47:26;97.95;;;39.95;;
77495;SDS011;66600;48.378;9.948;2024-01-11T02:47:57;137.75;;;41.72;;
77495;SDS011;66600;48.378;9.948;2024-01-11T02:48:28;104.40;;;39.40;;
77495;SDS011;66600;48.378;9.948;2024-01-11T02:48:59;112.97;;;41.10;;
77495;SDS011;66600;48.378;9.948;2024-01-11T02:49:29;99.35;;;39.13;;
77495;SDS011;66600;48.378;9.948;2024-01-11T02:49:59;113.15;;;41.63;;
77495;SDS011;66600;48.378;9.948;2024-01-11T02:50:30;118.60;;;40.90;;
77495;SDS011;66600;48.378;9.948;2024-01-11T02:51:00;96.50;;;38.50;;
77495;SDS011;66600;48.378;9.948;2024-01-11T02:51:30;101.95;;;38.80;;
77495;SDS011;66600;48.378;9.948;2024-01-11T02:52:01;101.03;;;39.28;;
77495;SDS011;66600;48.378;9.948;2024-01-11T02:52:31;104.82;;;38.58;;
77495;SDS011;66600;48.378;9.948;2024-01-11T02:53:02;111.72;;;40.92;;
77495;SDS011;66600;48.378;9.948;2024-01-11T02:53:32;111.90;;;40.67;;
77495;SDS011;66600;48.378;9.948;2024-01-11T02:54:04;114.07;;;39.75;;
77495;SDS011;66600;48.378;9.948;2024-01-11T02:54:34;93.55;;;39.15;;
77495;SDS011;66600;48.378;9.948;2024-01-11T02:55:05;97.93;;;37.92;;
77495;SDS011;66600;48.378;9.948;2024-01-11T02:55:35;97.07;;;39.05;;
77495;SDS011;66600;48.378;9.948;2024-01-11T02:56:05;118.97;;;39.00;;
77495;SDS011;66600;48.378;9.948;2024-01-11T02:56:36;114.15;;;38.38;;
77495;SDS011;66600;48.378;9.948;2024-01-11T02:57:06;109.45;;;41.50;;
77495;SDS011;66600;48.378;9.948;2024-01-11T02:57:36;112.85;;;38.60;;
77495;SDS011;66600;48.378;9.948;2024-01-11T02:58:07;106.75;;;39.28;;
77495;SDS011;66600;48.378;9.948;2024-01-11T02:58:37;137.90;;;41.70;;
77495;SDS011;66600;48.378;9.948;2024-01-11T02:59:07;117.88;;;40.83;;
77495;SDS011;66600;48.378;9.948;2024-01-11T02:59:39;108.97;;;41.70;;
77495;SDS011;66600;48.378;9.948;2024-01-11T03:00:10;101.60;;;38.83;;